• Join FlightAware (Why Join?)
  • Login
  • US Flag 
02:36AM EDT


 

Airport Tracker/Info


-or-


 

Live Flight TrackerFlight Track Log ✈ ASQ6078 ✈ 30-Apr-2013 ✈ KDEN - KCID

Flight Track Log - Related Links

Times and Time Zones

All times are in EDT time to prevent confusion due to time zone crossing. See the ASQ6078 flight status page for this flight to view local times or setup timezone preferences in your user account.

Time Position Orientation Groundspeed Altitude Reporting Facility
EDT Latitude Longitude Course Direction KTS MPH feet Rate Location/Type
06:47PM 39.8833 -104.6000 90° East 175 201 6,400  Level Denver TRACON
06:48PM 39.8833 -104.5333 90° East 216 249 8,100 1,560 Climbing Denver TRACON
06:49PM 39.9167 -104.4333 66° East 263 303 9,800 1,380 Climbing Denver TRACON
06:50PM 39.9333 -104.3500 75° East 297 342 10,900 1,080 Climbing Denver TRACON
06:51PM 39.9439 -104.2836 78° East 322 371 11,400 1,020 Climbing Denver Center
06:52PM 39.9703 -104.1592 74° East 358 412 12,500 1,020 Climbing Denver Center
06:53PM 39.9869 -104.0111 82° East 382 440 13,600 1,020 Climbing Denver Center
06:54PM 40.0053 -103.8664 81° East 407 468 14,700 960 Climbing Denver Center
06:55PM 40.0267 -103.7233 79° East 410 472 15,600 960 Climbing Denver Center
06:56PM 40.0528 -103.5758 77° East 415 478 16,800 1,740 Climbing Denver Center
06:57PM 40.0806 -103.4050 78° East 409 471 19,300 2,100 Climbing Denver Center
06:58PM 40.1036 -103.2636 78° East 396 456 21,200 1,680 Climbing Denver Center
06:59PM 40.1264 -103.1272 78° East 383 441 22,800 1,200 Climbing Denver Center
07:00PM 40.1489 -102.9819 79° East 402 463 23,800 960 Climbing Denver Center
07:01PM 40.1714 -102.8308 79° East 419 482 24,900 1,020 Climbing Denver Center
07:02PM 40.1983 -102.6628 78° East 432 497 26,000 1,020 Climbing Denver Center
07:03PM 40.2219 -102.5125 78° East 440 506 27,000 960 Climbing Denver Center
07:04PM 40.2481 -102.3344 79° East 447 514 28,100 960 Climbing Denver Center
07:05PM 40.2711 -102.1825 79° East 446 513 29,100 960 Climbing Denver Center
07:06PM 40.2939 -102.0292 79° East 450 518 30,100 960 Climbing Denver Center
07:07PM 40.3222 -101.8486 78° East 453 521 31,200 1,020 Climbing Denver Center
07:08PM 40.3450 -101.6894 79° East 463 533 32,200 1,020 Climbing Denver Center
07:09PM 40.3714 -101.5031 79° East 468 539 33,300 960 Climbing Denver Center
07:10PM 40.3972 -101.3419 78° East 473 544 34,300 780 Climbing Denver Center
07:11PM 40.4328 -101.1567 76° East 473 544 35,000 300 Climbing Denver Center
07:12PM 40.4653 -100.9919 75° East 488 562 35,000  Level Denver Center
07:14PM 40.5042 -100.7933 75° East 506 582 35,000  Level Denver Center
07:15PM 40.5489 -100.5633 76° East 515 593 35,000  Level Denver Center
07:16PM 40.5819 -100.3919 76° East 512 589 35,000  Level Denver Center
07:17PM 40.6200 -100.1925 76° East 507 583 35,000  Level Denver Center
07:18PM 40.6525 -100.0217 76° East 505 581 35,000  Level Denver Center
07:19PM 40.6892 -99.8244 76° East 506 582 35,000  Level Denver Center
07:20PM 40.7150 -99.6828 76° East 499 574 35,000  Level Denver Center
07:21PM 40.7539 -99.4686 76° East 501 577 35,000  Level Denver Center
07:22PM 40.7864 -99.2931 76° East 497 572 35,000  Level Denver Center
07:23PM 40.8192 -99.1125 76° East 501 577 35,000  Level Denver Center
07:24PM 40.8458 -98.9639 77° East 500 575 35,000  Level Minneapolis Center
07:25PM 40.8764 -98.7864 77° East 498 573 35,000  Level Minneapolis Center
07:26PM 40.9081 -98.6078 77° East 499 574 35,000  Level Minneapolis Center
07:27PM 40.9414 -98.4092 77° East 501 577 35,000  Level Minneapolis Center
07:28PM 40.9722 -98.2333 77° East 496 571 35,000  Level Minneapolis Center
07:29PM 41.0017 -98.0572 77° East 493 567 35,000  Level Minneapolis Center
07:30PM 41.0311 -97.8828 77° East 489 563 35,000  Level Minneapolis Center
07:31PM 41.0603 -97.7092 77° East 486 559 35,000  Level Minneapolis Center
07:32PM 41.0947 -97.5008 78° East 483 556 35,000  Level Minneapolis Center
07:33PM 41.1200 -97.3436 78° East 482 555 35,000  Level Minneapolis Center
07:34PM 41.1481 -97.1700 78° East 482 555 35,000  Level Minneapolis Center
07:35PM 41.1761 -96.9967 78° East 481 554 35,000  Level Minneapolis Center
07:36PM 41.2083 -96.7886 78° East 479 551 35,000  Level Minneapolis Center
07:37PM 41.2356 -96.6150 78° East 481 554 35,000  Level Minneapolis Center
07:38PM 41.2631 -96.4411 78° East 480 552 35,000  Level Minneapolis Center
07:39PM 41.2864 -96.2847 79° East 481 554 35,000  Level Minneapolis Center
07:40PM 41.3169 -96.0764 79° East 479 551 35,000  Level Minneapolis Center
07:41PM 41.3439 -95.9031 78° East 477 549 35,000  Level Minneapolis Center
07:42PM 41.3683 -95.7303 79° East 476 548 35,000  Level Minneapolis Center
07:43PM 41.3939 -95.5544 79° East 477 549 35,000  Level Minneapolis Center
07:44PM 41.4189 -95.3822 79° East 476 548 35,000  Level Minneapolis Center
07:45PM 41.4442 -95.2097 79° East 475 547 35,000  Level Minneapolis Center
07:46PM 41.4683 -95.0378 79° East 473 544 35,000 -600 Level Minneapolis Center
07:47PM 41.4914 -94.8678 80° East 468 539 33,800 -1,500 Descending Minneapolis Center
07:48PM 41.5194 -94.6681 79° East 457 526 32,000 -1,620 Descending Minneapolis Center
07:49PM 41.5417 -94.5011 80° East 456 525 30,500 -1,440 Descending Minneapolis Center
07:50PM 41.5661 -94.3283 79° East 469 540 29,100 -780 Descending Minneapolis Center
07:51PM 41.5892 -94.1517 80° East 475 547 29,000 -60 Descending Minneapolis Center
07:52PM 41.6108 -93.9772 81° East 477 549 29,000  Level Minneapolis Center
07:54PM 41.6342 -93.8025 80° East 479 551 29,000 -60 Level Minneapolis Center
07:55PM 41.6572 -93.6253 80° East 481 554 28,900 -840 Descending Minneapolis Center
07:56PM 41.6803 -93.4478 80° East 484 557 27,300 -1,980 Descending Minneapolis Center
07:57PM 41.7061 -93.2367 81° East 484 557 24,900 -2,520 Descending Minneapolis Center
07:58PM 41.7272 -93.0667 80° East 475 547 22,200 -2,700 Descending Minneapolis Center
07:59PM 41.7475 -92.9031 81° East 458 527 19,400 -2,880 Descending Minneapolis Center
08:00PM 41.7686 -92.7308 81° East 439 505 16,300 -3,000 Descending Minneapolis Center
08:01PM 41.7903 -92.5633 80° East 427 491 13,300 -2,760 Descending Minneapolis Center
08:01PM 41.7942 -92.4986 85° East 427 491 12,200 -1,500 Descending Chicago Center
08:02PM 41.7983 -92.3550 88° East 399 459 11,100 -780 Descending Chicago Center
08:03PM 41.8019 -92.2114 88° East 393 452 10,600 -480 Descending Chicago Center
08:04PM 41.8053 -92.0658 88° East 395 455 10,200 -300 Descending Chicago Center
08:05PM 41.8089 -91.8961 88° East 387 445 10,100 -900 Descending Chicago Center
08:06PM 41.8125 -91.7858 87° East 321 369 8,400 -2,040 Descending Chicago Center
08:07PM 41.8142 -91.6822 89° East 292 336 5,900 -2,100 Descending Chicago Center
08:08PM 41.8264 -91.5881 80° East 292 336 4,100 -1,740 Descending Chicago Center
08:09PM 41.8828 -91.5989 352° North 249 287 2,400 -1,320 Descending Chicago Center
08:10PM 41.8853 -91.6625 273° West 172 198 1,400 -600 Descending Chicago Center
08:12PM 41.8836 -91.7136 268° West 165 190 1,200 -240 Descending Chicago Center